createdAt,value
2019-01-09T00:01:27.095Z,99736.47
2019-01-09T00:05:34.360Z,99741.47
2019-01-09T00:09:41.437Z,99744.77
2019-01-09T00:13:48.819Z,99763.42
2019-01-09T00:17:55.787Z,99751.79
2019-01-09T00:22:02.646Z,99738.25
2019-01-09T00:26:09.665Z,99753.03
2019-01-09T00:30:16.582Z,99752.81
2019-01-09T00:34:23.478Z,99759.02
2019-01-09T00:38:30.449Z,99756.42
2019-01-09T00:42:37.336Z,99757.84
2019-01-09T00:46:44.340Z,99761.59
2019-01-09T00:50:51.271Z,99758.47
2019-01-09T00:55:00.903Z,99749.02
2019-01-09T00:59:08.152Z,99750.79
2019-01-09T01:04:05.198Z,99750.74
2019-01-09T01:09:14.481Z,99751.99
2019-01-09T01:14:10.666Z,99763.95
2019-01-09T01:19:00.795Z,99768.83
2019-01-09T01:24:02.436Z,99774.54
2019-01-09T01:29:29.232Z,99769.94
2019-01-09T01:34:15.792Z,99778.05
2019-01-09T01:39:08.720Z,99779.81
2019-01-09T01:43:53.700Z,99765.41
2019-01-09T01:48:40.525Z,99759.37
2019-01-09T01:53:38.259Z,99748.16
2019-01-09T01:58:54.714Z,99754.95
2019-01-09T02:03:56.332Z,99753.98
2019-01-09T02:08:54.775Z,99748.41
2019-01-09T02:13:34.429Z,99744.69
2019-01-09T02:18:25.047Z,99729.34
2019-01-09T02:23:05.380Z,99723.08
2019-01-09T02:27:49.231Z,99740.23
2019-01-09T02:32:32.789Z,99760.25
2019-01-09T02:36:39.804Z,99804.19
2019-01-09T02:40:46.755Z,99803.89
2019-01-09T02:44:57.124Z,99791.85
2019-01-09T02:49:04.366Z,99800.23
2019-01-09T02:53:11.228Z,99792.69
2019-01-09T02:57:18.142Z,99788.78
2019-01-09T03:01:24.984Z,99790.06
2019-01-09T03:05:31.913Z,99789.91
2019-01-09T03:09:38.766Z,99790.84
2019-01-09T03:13:45.693Z,99791.95
2019-01-09T03:17:52.698Z,99788.96
2019-01-09T03:21:59.735Z,99784.69
2019-01-09T03:26:07.917Z,99777.20
2019-01-09T03:30:15.073Z,99774.14
2019-01-09T03:34:21.998Z,99772.36
2019-01-09T03:38:28.968Z,99772.60
2019-01-09T03:42:37.453Z,99775.30
2019-01-09T03:46:44.592Z,99785.97
2019-01-09T03:50:51.485Z,99781.50
2019-01-09T03:54:58.477Z,99777.00
2019-01-09T03:59:05.499Z,99774.69
2019-01-09T04:03:12.556Z,99766.20
2019-01-09T04:07:19.448Z,99763.03
2019-01-09T04:11:26.443Z,99757.31
2019-01-09T04:15:33.597Z,99747.16
2019-01-09T04:19:41.556Z,99748.65
2019-01-09T04:23:50.315Z,99748.19
2019-01-09T04:27:57.178Z,99752.11
2019-01-09T04:32:04.254Z,99750.05
2019-01-09T04:36:11.200Z,99750.42
2019-01-09T04:40:18.172Z,99742.67
2019-01-09T04:44:25.097Z,99739.33
2019-01-09T04:48:32.123Z,99736.23
2019-01-09T04:52:38.959Z,99735.67
2019-01-09T04:56:46.273Z,99742.14
2019-01-09T05:00:53.279Z,99733.15
2019-01-09T05:05:00.289Z,99745.00
2019-01-09T05:09:08.174Z,99736.91
2019-01-09T05:13:15.205Z,99733.63
2019-01-09T05:17:22.263Z,99736.06
2019-01-09T05:21:29.641Z,99732.52
2019-01-09T05:25:36.684Z,99735.03
2019-01-09T05:29:43.607Z,99735.03
2019-01-09T05:33:50.716Z,99727.39
2019-01-09T05:37:57.733Z,99715.91
2019-01-09T05:42:04.872Z,99728.55
2019-01-09T05:46:12.086Z,99720.58
2019-01-09T05:50:19.071Z,99731.47
2019-01-09T05:54:26.703Z,99725.20
2019-01-09T05:58:33.713Z,99714.67
2019-01-09T06:02:40.698Z,99715.16
2019-01-09T06:06:47.744Z,99705.56
2019-01-09T06:10:54.760Z,99711.80
2019-01-09T06:15:01.684Z,99703.86
2019-01-09T06:19:10.843Z,99715.06
2019-01-09T06:23:17.796Z,99718.13
2019-01-09T06:27:24.788Z,99722.52
2019-01-09T06:31:32.132Z,99722.80
2019-01-09T06:35:41.023Z,99735.67
2019-01-09T06:39:48.028Z,99738.87
2019-01-09T06:43:55.106Z,99752.95
2019-01-09T06:48:03.778Z,99761.14
2019-01-09T06:52:10.718Z,99776.02
2019-01-09T06:56:17.856Z,99767.61
2019-01-09T07:00:24.810Z,99779.09
2019-01-09T07:04:31.770Z,99779.54
2019-01-09T07:08:38.827Z,99775.72
2019-01-09T07:12:46.516Z,99782.33
2019-01-09T07:16:53.330Z,99790.25
2019-01-09T07:21:01.746Z,99794.67
2019-01-09T07:25:09.934Z,99792.50
2019-01-09T07:29:16.823Z,99787.84
2019-01-09T07:33:23.620Z,99787.48
2019-01-09T07:37:33.778Z,99793.27
2019-01-09T07:41:40.832Z,99794.20
2019-01-09T07:45:47.825Z,99792.80
2019-01-09T07:49:54.820Z,99801.56
2019-01-09T07:54:02.762Z,99799.59
2019-01-09T07:58:10.240Z,99804.27
2019-01-09T08:02:17.465Z,99803.72
2019-01-09T08:06:24.396Z,99813.61
2019-01-09T08:10:31.405Z,99812.39
2019-01-09T08:14:38.346Z,99818.37
2019-01-09T08:18:48.388Z,99815.77
2019-01-09T08:22:55.574Z,99822.00
2019-01-09T08:27:05.272Z,99824.05
2019-01-09T08:31:12.281Z,99827.31
2019-01-09T08:35:19.147Z,99830.97
2019-01-09T08:39:26.267Z,99839.28
2019-01-09T08:43:33.785Z,99844.23
2019-01-09T08:47:41.308Z,99843.38
2019-01-09T08:51:48.621Z,99846.17
2019-01-09T08:55:56.176Z,99846.91
2019-01-09T09:00:03.272Z,99846.81
2019-01-09T09:04:10.317Z,99849.05
2019-01-09T09:08:20.458Z,99849.70
2019-01-09T09:12:27.491Z,99850.53
2019-01-09T09:16:37.032Z,99847.90
2019-01-09T09:20:46.740Z,99868.27
2019-01-09T09:24:55.338Z,99867.98
2019-01-09T09:29:04.344Z,99866.59
2019-01-09T09:33:13.589Z,99884.06
2019-01-09T09:37:20.693Z,99882.13
2019-01-09T09:41:35.317Z,99885.73
2019-01-09T09:45:42.877Z,99897.13
2019-01-09T09:49:49.955Z,99905.62
2019-01-09T09:53:57.380Z,99908.70
2019-01-09T09:58:05.845Z,99919.48
2019-01-09T10:02:13.320Z,99916.56
2019-01-09T10:06:22.894Z,99921.08
2019-01-09T10:10:30.243Z,99916.56
2019-01-09T10:14:37.741Z,99918.81
2019-01-09T10:18:45.035Z,99920.20
2019-01-09T10:22:52.149Z,99924.05
2019-01-09T10:27:00.676Z,99927.02
2019-01-09T10:31:07.870Z,99930.22
2019-01-09T10:35:17.818Z,99922.84
2019-01-09T10:39:24.825Z,99921.43
2019-01-09T10:43:31.996Z,99923.41
2019-01-09T10:47:40.609Z,99925.64
2019-01-09T10:51:47.744Z,99918.20
2019-01-09T10:55:57.897Z,99914.48
2019-01-09T11:00:06.740Z,99913.50
2019-01-09T11:04:14.032Z,99919.13
2019-01-09T11:08:21.092Z,99914.48
2019-01-09T11:12:30.753Z,99918.34
2019-01-09T11:16:37.774Z,99917.50
2019-01-09T11:20:44.961Z,99917.95
2019-01-09T11:24:58.143Z,99915.72
2019-01-09T11:29:05.719Z,99916.22
2019-01-09T11:33:16.196Z,99918.81
2019-01-09T11:37:25.542Z,99925.82
2019-01-09T11:41:32.544Z,99920.75
2019-01-09T11:45:40.046Z,99910.16
2019-01-09T11:49:47.190Z,99916.78
2019-01-09T11:53:56.973Z,99914.14
2019-01-09T11:58:03.944Z,99918.52
2019-01-09T12:02:11.059Z,99909.14
2019-01-09T12:06:18.072Z,99907.58
2019-01-09T12:10:30.280Z,99913.97
2019-01-09T12:14:35.492Z,99916.16
2019-01-09T12:18:42.553Z,99921.40
2019-01-09T12:22:50.721Z,99918.86
2019-01-09T12:26:57.834Z,99920.84
2019-01-09T12:31:04.902Z,99910.45
2019-01-09T12:35:12.608Z,99919.05
2019-01-09T12:39:19.728Z,99913.83
2019-01-09T12:43:28.081Z,99921.28
2019-01-09T12:47:34.908Z,99912.00
2019-01-09T12:51:42.525Z,99921.19
2019-01-09T12:55:49.757Z,99934.20
2019-01-09T12:59:56.794Z,99934.39
2019-01-09T13:04:03.858Z,99937.80
2019-01-09T13:08:10.827Z,99941.34
2019-01-09T13:12:17.750Z,99953.88
2019-01-09T13:16:24.736Z,99959.20
2019-01-09T13:20:31.801Z,99972.38
2019-01-09T13:24:38.962Z,99976.93
2019-01-09T13:28:45.957Z,99978.98
2019-01-09T13:32:55.503Z,99988.05
2019-01-09T13:37:02.611Z,99985.92
2019-01-09T13:41:09.732Z,99979.19
2019-01-09T13:45:23.585Z,99983.66
2019-01-09T13:49:30.582Z,99987.03
2019-01-09T13:53:39.411Z,99984.52
2019-01-09T13:57:46.297Z,99985.88
2019-01-09T14:01:53.520Z,99991.95
2019-01-09T14:06:00.589Z,99988.88
2019-01-09T14:10:11.102Z,99993.72
2019-01-09T14:14:18.712Z,99993.62
2019-01-09T14:18:26.143Z,99998.58
2019-01-09T14:22:33.404Z,100003.32
2019-01-09T14:26:40.557Z,100007.83
2019-01-09T14:30:47.902Z,100011.37
2019-01-09T14:35:00.308Z,100010.36
2019-01-09T14:39:09.734Z,100005.12
2019-01-09T14:43:17.229Z,100013.78
2019-01-09T14:47:24.292Z,100012.76
2019-01-09T14:51:32.109Z,100013.20
2019-01-09T14:55:39.224Z,100022.71
2019-01-09T14:59:46.446Z,100032.45
2019-01-09T15:03:53.499Z,100032.62
2019-01-09T15:08:00.609Z,100030.19
2019-01-09T15:12:07.935Z,100040.40
2019-01-09T15:16:15.167Z,100044.36
2019-01-09T15:20:22.328Z,100048.02
2019-01-09T15:24:29.558Z,100052.59
2019-01-09T15:28:36.567Z,100062.30
2019-01-09T15:32:43.747Z,100063.61
2019-01-09T15:36:51.791Z,100057.57
2019-01-09T15:40:58.883Z,100066.66
2019-01-09T15:45:08.366Z,100076.64
2019-01-09T15:49:15.572Z,100078.40
2019-01-09T15:53:24.482Z,100078.89
2019-01-09T15:57:31.602Z,100088.05
2019-01-09T16:01:39.693Z,100092.30
2019-01-09T16:05:46.912Z,100092.00
2019-01-09T16:09:54.018Z,100102.20
2019-01-09T16:14:01.099Z,100102.53
2019-01-09T16:18:09.213Z,100108.42
2019-01-09T16:22:16.583Z,100110.73
2019-01-09T16:26:23.605Z,100119.39
2019-01-09T16:30:45.957Z,100124.70
2019-01-09T16:34:54.374Z,100127.72
2019-01-09T16:39:01.266Z,100131.64
2019-01-09T16:43:10.890Z,100141.27
2019-01-09T16:47:18.074Z,100133.98
2019-01-09T16:51:25.242Z,100135.91
2019-01-09T16:55:32.203Z,100143.94
2019-01-09T16:59:39.407Z,100144.43
2019-01-09T17:03:46.986Z,100153.20
2019-01-09T17:07:54.455Z,100156.72
2019-01-09T17:12:01.431Z,100156.53
2019-01-09T17:16:10.234Z,100152.13
2019-01-09T17:20:20.220Z,100163.31
2019-01-09T17:24:29.035Z,100165.53
2019-01-09T17:28:36.381Z,100172.45
2019-01-09T17:32:43.680Z,100176.02
2019-01-09T17:36:50.963Z,100178.85
2019-01-09T17:41:00.157Z,100176.48
2019-01-09T17:45:08.991Z,100177.02
2019-01-09T17:49:16.377Z,100181.17
2019-01-09T17:53:27.036Z,100183.55
2019-01-09T17:57:34.203Z,100193.13
2019-01-09T18:01:41.254Z,100200.35
2019-01-09T18:05:48.888Z,100202.59
2019-01-09T18:09:55.989Z,100213.63
2019-01-09T18:14:03.074Z,100209.64
2019-01-09T18:18:10.385Z,100213.79
2019-01-09T18:22:18.980Z,100220.84
2019-01-09T18:26:28.966Z,100220.68
2019-01-09T18:31:23.156Z,100226.53
2019-01-09T18:35:56.582Z,100234.26
2019-01-09T18:40:47.851Z,100235.34
2019-01-09T18:46:09.515Z,100242.32
2019-01-09T18:51:28.840Z,100251.53
2019-01-09T18:55:36.080Z,100252.38
2019-01-09T18:59:43.321Z,100255.44
2019-01-09T19:03:53.946Z,100261.67
2019-01-09T19:08:01.298Z,100259.44
2019-01-09T19:12:08.637Z,100266.12
2019-01-09T19:16:24.150Z,100274.88
2019-01-09T19:20:31.520Z,100285.23
2019-01-09T19:24:41.864Z,100281.64
2019-01-09T19:28:50.375Z,100297.14
2019-01-09T19:32:59.376Z,100299.34
2019-01-09T19:37:07.798Z,100297.14
2019-01-09T19:41:30.058Z,100302.12
2019-01-09T19:45:39.859Z,100304.52
2019-01-09T19:49:57.764Z,100303.05
2019-01-09T19:54:11.237Z,100309.41
2019-01-09T19:58:40.711Z,100321.40
2019-01-09T20:03:12.872Z,100316.15
2019-01-09T20:07:26.998Z,100324.63
2019-01-09T20:11:44.301Z,100316.15
2019-01-09T20:15:57.788Z,100322.91
2019-01-09T20:20:17.222Z,100329.76
2019-01-09T20:24:28.307Z,100331.36
2019-01-09T20:28:46.468Z,100335.42
2019-01-09T20:32:59.710Z,100342.16
2019-01-09T20:37:29.422Z,100340.03
2019-01-09T20:41:47.615Z,100343.17
2019-01-09T20:45:57.289Z,100348.77
2019-01-09T20:50:05.851Z,100350.84
2019-01-09T20:54:17.824Z,100353.37
2019-01-09T20:58:29.916Z,100347.25
2019-01-09T21:02:37.980Z,100351.09
2019-01-09T21:06:48.356Z,100356.38
2019-01-09T21:10:58.153Z,100362.05
2019-01-09T21:15:07.082Z,100364.87
2019-01-09T21:19:16.532Z,100361.65
2019-01-09T21:23:28.030Z,100354.06
2019-01-09T21:27:41.944Z,100371.03
2019-01-09T21:31:48.008Z,100372.86
2019-01-09T21:35:55.944Z,100377.95
2019-01-09T21:40:06.032Z,100373.03
2019-01-09T21:44:16.621Z,100380.07
2019-01-09T21:48:24.906Z,100391.11
2019-01-09T21:52:42.911Z,100399.80
2019-01-09T21:56:57.606Z,100405.29
2019-01-09T22:01:06.420Z,100405.64
2019-01-09T22:05:19.657Z,100408.67
2019-01-09T22:09:26.984Z,100402.52
2019-01-09T22:13:37.274Z,100398.23
2019-01-09T22:17:46.246Z,100394.33
2019-01-09T22:21:53.636Z,100396.73
2019-01-09T22:26:00.569Z,100396.86
2019-01-09T22:30:18.374Z,100402.41
2019-01-09T22:34:25.526Z,100400.57
2019-01-09T22:38:32.688Z,100405.19
2019-01-09T22:42:40.923Z,100407.56
2019-01-09T22:46:48.269Z,100416.32
2019-01-09T22:50:57.346Z,100424.86
2019-01-09T22:55:06.135Z,100420.94
2019-01-09T22:59:13.078Z,100420.25
2019-01-09T23:03:20.295Z,100426.77
2019-01-09T23:07:28.326Z,100434.00
2019-01-09T23:11:35.505Z,100443.48
2019-01-09T23:15:42.491Z,100441.38
2019-01-09T23:19:51.449Z,100443.53
2019-01-09T23:23:58.929Z,100449.91
2019-01-09T23:28:06.330Z,100455.48
2019-01-09T23:32:13.457Z,100459.47
2019-01-09T23:36:20.505Z,100458.17
2019-01-09T23:40:27.762Z,100467.39
2019-01-09T23:44:34.693Z,100457.23
2019-01-09T23:48:41.810Z,100470.23
2019-01-09T23:52:48.964Z,100470.09
2019-01-09T23:56:56.129Z,100478.89
